Walnut Creek, Ohio
Current Conditions -  °F | °C
As of 8:53 PM on Friday 24 Oct 2014 (Local Time) from KPHD Reporting Station
Broken Clouds Broken Clouds  
Wind Chill: 48°   Ceiling: 4400
Heat Index: 48°   Visibility: 10mi
Dew Point: 42°   Wind: 0mph
Humidity: 80%   Direction: NA
Pressure: 30.03"   Gusts: NA
Location:  40.54°N, 81.72°W
Report Text: KPHD 250053Z AUTO 00000KT 10SM BKN044 09/06 A3003 RMK AO2 SLP172 T00890056
Loading
Personal Weather Stations






























Interactive Weather Map New forecast layout! Learn more

10-Day Weather Forecast

Advertisements
Track Severe Weather on mobile